createdAt,value
2022-08-14T00:01:37.489Z,33.13
2022-08-14T00:04:32.137Z,33.18
2022-08-14T00:06:53.949Z,33.20
2022-08-14T00:09:23.321Z,33.18
2022-08-14T00:11:52.006Z,33.20
2022-08-14T00:14:21.776Z,33.47
2022-08-14T00:16:50.827Z,33.34
2022-08-14T00:19:23.816Z,33.32
2022-08-14T00:21:52.102Z,33.54
2022-08-14T00:24:28.180Z,33.47
2022-08-14T00:27:01.787Z,33.81
2022-08-14T00:29:33.178Z,34.01
2022-08-14T00:32:51.830Z,34.08
2022-08-14T00:35:01.257Z,34.09
2022-08-14T00:37:29.375Z,34.29
2022-08-14T00:40:00.282Z,34.51
2022-08-14T00:42:55.075Z,34.31
2022-08-14T00:45:18.333Z,34.31
2022-08-14T00:47:49.733Z,34.41
2022-08-14T00:50:19.058Z,34.27
2022-08-14T00:52:51.231Z,34.48
2022-08-14T00:55:19.982Z,34.58
2022-08-14T00:58:10.149Z,34.68
2022-08-14T01:00:47.247Z,34.72
2022-08-14T01:03:20.068Z,34.77
2022-08-14T01:05:51.771Z,34.73
2022-08-14T01:08:58.216Z,34.75
2022-08-14T01:11:09.683Z,34.75
2022-08-14T01:13:42.748Z,34.51
2022-08-14T01:16:14.923Z,34.60
2022-08-14T01:19:02.154Z,34.73
2022-08-14T01:21:34.724Z,34.82
2022-08-14T01:24:09.771Z,34.94
2022-08-14T01:26:39.130Z,34.99
2022-08-14T01:29:07.349Z,35.15
2022-08-14T01:31:39.800Z,35.03
2022-08-14T01:35:20.263Z,35.12
2022-08-14T01:36:57.601Z,35.22
2022-08-14T01:39:25.686Z,35.23
2022-08-14T01:41:58.300Z,35.27
2022-08-14T01:44:32.350Z,35.37
2022-08-14T01:47:05.858Z,35.40
2022-08-14T01:49:35.692Z,35.52
2022-08-14T01:52:57.593Z,35.58
2022-08-14T01:55:03.922Z,35.78
2022-08-14T01:58:01.024Z,35.74
2022-08-14T02:00:23.756Z,35.92
2022-08-14T02:02:56.923Z,35.86
2022-08-14T02:05:29.580Z,35.76
2022-08-14T02:08:09.486Z,35.76
2022-08-14T02:10:47.146Z,35.84
2022-08-14T02:13:17.251Z,35.93
2022-08-14T02:15:48.398Z,35.85
2022-08-14T02:18:18.270Z,36.02
2022-08-14T02:20:47.541Z,35.88
2022-08-14T02:23:23.747Z,35.83
2022-08-14T02:25:54.729Z,35.94
2022-08-14T02:28:56.811Z,36.04
2022-08-14T02:31:15.045Z,36.12
2022-08-14T02:33:43.230Z,36.11
2022-08-14T02:37:04.139Z,36.16
2022-08-14T02:39:01.032Z,36.39
2022-08-14T02:41:30.994Z,36.46
2022-08-14T02:44:05.437Z,36.38
2022-08-14T02:46:35.610Z,36.24
2022-08-14T02:49:09.236Z,36.31
2022-08-14T02:51:38.130Z,36.35
2022-08-14T02:54:08.481Z,36.37
2022-08-14T02:57:15.906Z,36.65
2022-08-14T02:59:28.754Z,36.87
2022-08-14T03:01:57.419Z,36.86
2022-08-14T03:04:28.514Z,36.61
2022-08-14T03:07:06.687Z,36.95
2022-08-14T03:10:25.122Z,36.82
2022-08-14T03:12:31.802Z,36.95
2022-08-14T03:15:03.220Z,36.89
2022-08-14T03:17:31.972Z,36.94
2022-08-14T03:20:19.335Z,36.77
2022-08-14T03:22:51.571Z,36.85
2022-08-14T03:25:23.171Z,36.98
2022-08-14T03:27:59.093Z,36.98
2022-08-14T03:30:39.159Z,37.02
2022-08-14T03:33:10.597Z,37.10
2022-08-14T03:35:59.787Z,36.99
2022-08-14T03:39:12.897Z,37.12
2022-08-14T03:41:19.843Z,37.04
2022-08-14T03:43:57.127Z,37.27
2022-08-14T03:46:53.126Z,37.20
2022-08-14T03:49:28.216Z,37.07
2022-08-14T03:51:57.712Z,37.13
2022-08-14T03:54:26.284Z,37.24
2022-08-14T03:57:02.435Z,37.50
2022-08-14T03:59:30.946Z,37.48
2022-08-14T04:02:01.821Z,37.53
2022-08-14T04:04:30.460Z,37.49
2022-08-14T04:06:59.429Z,37.39
2022-08-14T04:09:27.574Z,37.38
2022-08-14T04:11:57.984Z,37.63
2022-08-14T04:14:29.083Z,37.54
2022-08-14T04:16:57.547Z,37.35
2022-08-14T04:19:32.745Z,37.66
2022-08-14T04:22:03.330Z,37.40
2022-08-14T04:24:37.680Z,37.48
2022-08-14T04:27:09.449Z,37.52
2022-08-14T04:29:39.096Z,37.36
2022-08-14T04:33:02.479Z,37.46
2022-08-14T04:34:57.126Z,37.75
2022-08-14T04:37:43.214Z,37.79
2022-08-14T04:40:30.490Z,37.85
2022-08-14T04:43:17.681Z,37.80
2022-08-14T04:45:45.804Z,37.78
2022-08-14T04:48:39.481Z,37.90
2022-08-14T04:51:10.411Z,37.83
2022-08-14T04:53:43.472Z,37.80
2022-08-14T04:56:31.602Z,37.92
2022-08-14T04:59:10.599Z,37.98
2022-08-14T05:01:41.693Z,37.94
2022-08-14T05:04:19.947Z,38.01
2022-08-14T05:06:49.438Z,37.60
2022-08-14T05:09:17.610Z,37.72
2022-08-14T05:11:45.659Z,37.29
2022-08-14T05:14:33.934Z,37.27
2022-08-14T05:17:03.924Z,37.25
2022-08-14T05:19:36.481Z,37.40
2022-08-14T05:22:17.545Z,37.28
2022-08-14T05:24:50.503Z,37.37
2022-08-14T05:27:22.814Z,37.55
2022-08-14T05:29:53.894Z,37.52
2022-08-14T05:32:23.641Z,37.61
2022-08-14T05:34:58.339Z,37.85
2022-08-14T05:37:27.271Z,37.58
2022-08-14T05:39:56.376Z,37.96
2022-08-14T05:42:29.349Z,37.83
2022-08-14T05:45:05.323Z,37.70
2022-08-14T05:47:40.551Z,37.78
2022-08-14T05:50:17.630Z,37.85
2022-08-14T05:52:48.624Z,37.68
2022-08-14T05:55:21.890Z,37.74
2022-08-14T05:57:52.818Z,37.62
2022-08-14T06:00:29.116Z,37.64
2022-08-14T06:03:00.138Z,37.52
2022-08-14T06:05:29.068Z,37.36
2022-08-14T06:07:57.837Z,37.36
2022-08-14T06:10:28.200Z,37.29
2022-08-14T06:12:58.038Z,37.05
2022-08-14T06:15:30.307Z,36.97
2022-08-14T06:17:59.820Z,36.73
2022-08-14T06:20:28.783Z,36.52
2022-08-14T06:22:58.142Z,36.33
2022-08-14T06:25:27.690Z,36.19
2022-08-14T06:27:55.896Z,36.24
2022-08-14T06:30:42.169Z,36.43
2022-08-14T06:33:15.668Z,36.36
2022-08-14T06:35:43.910Z,36.36
2022-08-14T06:38:17.494Z,36.17
2022-08-14T06:40:46.149Z,36.07
2022-08-14T06:43:15.419Z,36.12
2022-08-14T06:45:50.255Z,36.25
2022-08-14T06:48:23.823Z,36.35
2022-08-14T06:50:52.508Z,36.55
2022-08-14T06:53:20.865Z,36.65
2022-08-14T06:55:58.204Z,36.69
2022-08-14T06:58:30.751Z,36.74
2022-08-14T07:01:26.793Z,37.09
2022-08-14T07:04:23.666Z,37.13
2022-08-14T07:06:55.750Z,37.16
2022-08-14T07:09:28.307Z,37.34
2022-08-14T07:12:54.976Z,37.30
2022-08-14T07:15:01.755Z,37.61
2022-08-14T07:17:32.134Z,37.91
2022-08-14T07:20:05.393Z,37.89
2022-08-14T07:22:55.986Z,37.65
2022-08-14T07:25:32.223Z,37.80
2022-08-14T07:28:01.044Z,37.61
2022-08-14T07:30:34.208Z,37.62
2022-08-14T07:33:04.705Z,37.52
2022-08-14T07:35:43.008Z,37.41
2022-08-14T07:38:21.945Z,37.33
2022-08-14T07:40:52.791Z,37.24
2022-08-14T07:43:21.423Z,37.29
2022-08-14T07:45:50.625Z,37.13
2022-08-14T07:48:20.342Z,37.38
2022-08-14T07:51:00.699Z,37.19
2022-08-14T07:53:31.103Z,37.04
2022-08-14T07:56:22.060Z,36.66
2022-08-14T07:58:52.996Z,36.94
2022-08-14T08:01:21.011Z,36.71
2022-08-14T08:03:54.260Z,36.43
2022-08-14T08:06:27.690Z,36.80
2022-08-14T08:09:01.043Z,36.52
2022-08-14T08:11:34.741Z,36.52
2022-08-14T08:14:10.830Z,36.67
2022-08-14T08:16:46.560Z,36.38
2022-08-14T08:19:19.034Z,36.11
2022-08-14T08:21:47.660Z,36.10
2022-08-14T08:24:18.560Z,35.86
2022-08-14T08:26:50.653Z,35.90
2022-08-14T08:29:22.506Z,35.75
2022-08-14T08:32:02.042Z,35.36
2022-08-14T08:34:45.345Z,35.32
2022-08-14T08:37:14.461Z,35.05
2022-08-14T08:40:03.160Z,34.66
2022-08-14T08:42:38.600Z,34.37
2022-08-14T08:45:12.444Z,34.22
2022-08-14T08:47:41.193Z,33.54
2022-08-14T08:50:23.465Z,33.70
2022-08-14T08:52:59.902Z,33.40
2022-08-14T08:55:32.185Z,33.08
2022-08-14T08:58:04.465Z,32.25
2022-08-14T09:00:34.977Z,31.79
2022-08-14T09:03:09.994Z,31.59
2022-08-14T09:05:40.574Z,31.29
2022-08-14T09:08:26.733Z,31.19
2022-08-14T09:11:00.517Z,30.79
2022-08-14T09:13:30.550Z,30.48
2022-08-14T09:15:59.263Z,30.34
2022-08-14T09:18:28.165Z,30.41
2022-08-14T09:20:58.666Z,29.91
2022-08-14T09:23:34.625Z,29.69
2022-08-14T09:26:21.554Z,30.00
2022-08-14T09:28:49.972Z,29.70
2022-08-14T09:31:18.326Z,30.35
2022-08-14T09:33:55.888Z,30.22
2022-08-14T09:36:38.739Z,30.38
2022-08-14T09:39:22.871Z,30.10
2022-08-14T09:42:20.906Z,30.30
2022-08-14T09:44:59.925Z,30.13
2022-08-14T09:47:42.234Z,30.48
2022-08-14T09:50:20.331Z,30.27
2022-08-14T09:52:56.870Z,29.73
2022-08-14T09:55:26.212Z,29.23
2022-08-14T09:58:08.472Z,28.76
2022-08-14T10:00:45.221Z,28.46
2022-08-14T10:03:13.336Z,28.38
2022-08-14T10:05:41.800Z,28.24
2022-08-14T10:08:26.289Z,28.18
2022-08-14T10:11:02.459Z,27.73
2022-08-14T10:13:43.286Z,27.05
2022-08-14T10:16:25.803Z,26.50
2022-08-14T10:19:07.140Z,26.35
2022-08-14T10:21:38.856Z,26.33
2022-08-14T10:24:36.915Z,26.02
2022-08-14T10:27:06.559Z,25.94
2022-08-14T10:29:35.228Z,25.52
2022-08-14T10:32:17.272Z,25.55
2022-08-14T10:34:47.168Z,25.53
2022-08-14T10:37:22.991Z,25.08
2022-08-14T10:40:05.353Z,24.27
2022-08-14T10:42:39.085Z,24.06
2022-08-14T10:45:21.191Z,23.91
2022-08-14T10:48:07.857Z,24.15
2022-08-14T10:50:38.800Z,23.65
2022-08-14T10:53:08.058Z,23.56
2022-08-14T10:55:39.707Z,23.14
2022-08-14T10:58:14.737Z,22.92
2022-08-14T11:00:47.175Z,22.84
2022-08-14T11:03:26.425Z,22.52
2022-08-14T11:06:01.328Z,22.50
2022-08-14T11:08:32.093Z,23.07
2022-08-14T11:11:03.162Z,22.72
2022-08-14T11:13:32.161Z,22.23
2022-08-14T11:16:01.747Z,22.33
2022-08-14T11:18:36.186Z,22.81
2022-08-14T11:21:09.639Z,22.80
2022-08-14T11:23:41.311Z,23.05
2022-08-14T11:26:14.120Z,23.50
2022-08-14T11:28:46.882Z,23.81
2022-08-14T11:31:17.258Z,24.37
2022-08-14T11:33:45.374Z,24.42
2022-08-14T11:36:18.382Z,24.64
2022-08-14T11:38:47.365Z,24.07
2022-08-14T11:41:17.765Z,23.69
2022-08-14T11:43:55.991Z,23.09
2022-08-14T11:46:30.519Z,23.17
2022-08-14T11:49:06.546Z,22.98
2022-08-14T11:51:36.436Z,22.80
2022-08-14T11:54:34.018Z,22.03
2022-08-14T11:57:05.835Z,21.91
2022-08-14T11:59:34.168Z,21.26
2022-08-14T12:03:00.302Z,20.50
2022-08-14T12:04:58.863Z,20.80
2022-08-14T12:07:26.988Z,20.67
2022-08-14T12:09:58.676Z,20.05
2022-08-14T12:12:45.480Z,19.65
2022-08-14T12:15:15.473Z,19.42
2022-08-14T12:17:49.651Z,18.53
2022-08-14T12:20:29.560Z,18.18
2022-08-14T12:22:58.906Z,18.14
2022-08-14T12:25:28.263Z,17.30
2022-08-14T12:28:01.657Z,17.19
2022-08-14T12:30:39.355Z,16.78
2022-08-14T12:33:08.887Z,17.19
2022-08-14T12:35:39.692Z,16.65
2022-08-14T12:38:08.706Z,16.55
2022-08-14T12:40:48.360Z,16.71
2022-08-14T12:43:19.343Z,16.90
2022-08-14T12:45:50.996Z,16.85
2022-08-14T12:48:21.054Z,16.28
2022-08-14T12:50:59.510Z,15.83
2022-08-14T12:53:36.217Z,15.40
2022-08-14T12:56:22.184Z,15.11
2022-08-14T12:58:57.907Z,14.98
2022-08-14T13:01:28.511Z,14.61
2022-08-14T13:04:07.267Z,14.62
2022-08-14T13:06:35.871Z,14.40
2022-08-14T13:09:05.048Z,14.46
2022-08-14T13:11:41.329Z,14.47
2022-08-14T13:14:16.961Z,14.22
2022-08-14T13:16:50.373Z,14.00
2022-08-14T13:19:19.933Z,14.34
2022-08-14T13:21:58.980Z,14.01
2022-08-14T13:24:34.365Z,13.83
2022-08-14T13:27:04.783Z,13.80
2022-08-14T13:29:37.620Z,13.92
2022-08-14T13:32:09.265Z,13.70
2022-08-14T13:34:37.785Z,13.48
2022-08-14T13:37:07.357Z,13.71
2022-08-14T13:39:36.176Z,13.52
2022-08-14T13:42:10.950Z,13.54
2022-08-14T13:44:43.326Z,13.54
2022-08-14T13:47:14.709Z,13.24
2022-08-14T13:49:57.966Z,13.10
2022-08-14T13:52:52.721Z,13.14
2022-08-14T13:55:14.670Z,13.08
2022-08-14T13:57:49.753Z,12.72
2022-08-14T14:00:21.763Z,12.57
2022-08-14T14:03:00.431Z,12.47
2022-08-14T14:05:53.065Z,12.42
2022-08-14T14:08:43.663Z,11.83
2022-08-14T14:11:04.580Z,12.27
2022-08-14T14:13:32.687Z,12.15
2022-08-14T14:16:04.706Z,11.94
2022-08-14T14:18:35.265Z,11.45
2022-08-14T14:21:03.555Z,11.91
2022-08-14T14:23:32.470Z,11.96
2022-08-14T14:26:00.639Z,11.08
2022-08-14T14:28:32.249Z,11.71
2022-08-14T14:31:01.351Z,11.51
2022-08-14T14:33:51.345Z,11.64
2022-08-14T14:36:21.511Z,11.20
2022-08-14T14:38:53.064Z,11.23
2022-08-14T14:41:22.368Z,10.90
2022-08-14T14:43:51.882Z,11.07
2022-08-14T14:46:20.599Z,10.74
2022-08-14T14:48:54.519Z,11.15
2022-08-14T14:51:22.984Z,11.12
2022-08-14T14:53:52.471Z,10.85
2022-08-14T14:56:50.652Z,10.93
2022-08-14T14:59:09.361Z,11.41
2022-08-14T15:01:38.498Z,11.27
2022-08-14T15:04:19.933Z,11.64
2022-08-14T15:06:49.206Z,11.35
2022-08-14T15:09:17.693Z,11.58
2022-08-14T15:11:47.130Z,11.14
2022-08-14T15:14:54.780Z,11.41
2022-08-14T15:17:03.871Z,11.51
2022-08-14T15:19:34.498Z,11.11
2022-08-14T15:22:02.513Z,10.99
2022-08-14T15:24:30.520Z,10.78
2022-08-14T15:26:59.869Z,11.28
2022-08-14T15:29:28.173Z,11.08
2022-08-14T15:31:56.373Z,11.06
2022-08-14T15:34:45.807Z,11.39
2022-08-14T15:37:16.563Z,11.19
2022-08-14T15:39:45.012Z,10.89
2022-08-14T15:42:16.092Z,11.35
2022-08-14T15:44:57.935Z,10.90
2022-08-14T15:47:30.683Z,11.11
2022-08-14T15:50:00.632Z,11.21
2022-08-14T15:52:32.974Z,11.70
2022-08-14T15:55:04.518Z,11.59
2022-08-14T15:57:32.544Z,11.31
2022-08-14T16:00:37.965Z,11.54
2022-08-14T16:03:09.629Z,11.09
2022-08-14T16:05:38.512Z,11.57
2022-08-14T16:08:27.249Z,11.57
2022-08-14T16:10:56.963Z,11.49
2022-08-14T16:13:39.334Z,11.19
2022-08-14T16:16:48.946Z,11.16
2022-08-14T16:19:07.264Z,10.81
2022-08-14T16:21:37.573Z,11.08
2022-08-14T16:24:26.873Z,11.31
2022-08-14T16:27:00.621Z,11.55
2022-08-14T16:29:29.803Z,11.14
2022-08-14T16:31:58.999Z,11.27
2022-08-14T16:34:46.853Z,11.25
2022-08-14T16:37:18.404Z,11.16
2022-08-14T16:39:48.760Z,11.29
2022-08-14T16:43:03.432Z,10.90
2022-08-14T16:45:06.743Z,11.09
2022-08-14T16:47:36.399Z,10.67
2022-08-14T16:50:08.785Z,10.95
2022-08-14T16:52:44.510Z,10.74
2022-08-14T16:55:17.760Z,11.48
2022-08-14T16:57:50.047Z,11.14
2022-08-14T17:00:30.005Z,11.24
2022-08-14T17:03:04.076Z,10.98
2022-08-14T17:05:34.393Z,11.46
2022-08-14T17:08:32.532Z,11.29
2022-08-14T17:11:10.848Z,11.58
2022-08-14T17:13:58.755Z,11.46
2022-08-14T17:16:35.574Z,11.83
2022-08-14T17:19:05.492Z,11.56
2022-08-14T17:21:37.633Z,11.67
2022-08-14T17:24:57.229Z,11.56
2022-08-14T17:26:57.071Z,11.90
2022-08-14T17:29:29.290Z,12.26
2022-08-14T17:32:02.144Z,12.30
2022-08-14T17:34:45.390Z,13.41
2022-08-14T17:37:24.547Z,14.88
2022-08-14T17:40:01.351Z,16.61
2022-08-14T17:42:58.885Z,18.40
2022-08-14T17:45:43.324Z,19.67
2022-08-14T17:49:16.254Z,20.28
2022-08-14T17:51:14.816Z,21.27
2022-08-14T17:53:53.921Z,22.17
2022-08-14T17:56:31.703Z,23.35
2022-08-14T17:59:04.192Z,24.80
2022-08-14T18:01:35.608Z,25.55
2022-08-14T18:04:05.384Z,26.20
2022-08-14T18:06:38.600Z,26.09
2022-08-14T18:09:25.051Z,26.79
2022-08-14T18:11:55.253Z,26.58
2022-08-14T18:14:32.194Z,27.15
2022-08-14T18:17:01.536Z,27.43
2022-08-14T18:19:31.540Z,27.38
2022-08-14T18:22:30.979Z,27.15
2022-08-14T18:24:56.500Z,27.61
2022-08-14T18:27:25.094Z,27.72
2022-08-14T18:29:58.678Z,27.99
2022-08-14T18:32:47.678Z,27.94
2022-08-14T18:35:46.404Z,29.63
2022-08-14T18:38:26.225Z,30.93
2022-08-14T18:41:37.432Z,31.82
2022-08-14T18:44:10.690Z,32.32
2022-08-14T18:47:14.979Z,32.61
2022-08-14T18:50:26.838Z,32.94
2022-08-14T18:52:53.851Z,33.86
2022-08-14T18:55:53.500Z,34.30
2022-08-14T18:58:31.473Z,34.58
2022-08-14T19:01:02.528Z,34.60
2022-08-14T19:03:54.595Z,35.22
2022-08-14T19:06:42.833Z,35.92
2022-08-14T19:09:43.851Z,35.87
2022-08-14T19:12:56.566Z,35.80
2022-08-14T19:15:26.164Z,35.75
2022-08-14T19:18:14.161Z,35.64
2022-08-14T19:20:52.787Z,35.68
2022-08-14T19:23:23.610Z,36.42
2022-08-14T19:26:34.136Z,36.18
2022-08-14T19:29:20.811Z,36.32
2022-08-14T19:31:55.265Z,36.90
2022-08-14T19:34:52.235Z,37.28
2022-08-14T19:37:44.975Z,37.63
2022-08-14T19:40:19.285Z,37.37
2022-08-14T19:42:49.024Z,37.16
2022-08-14T19:45:17.083Z,37.23
2022-08-14T19:47:50.037Z,37.69
2022-08-14T19:50:30.923Z,37.64
2022-08-14T19:53:12.059Z,38.24
2022-08-14T19:55:58.595Z,38.42
2022-08-14T19:58:38.738Z,38.33
2022-08-14T20:01:36.347Z,37.78
2022-08-14T20:04:07.882Z,37.88
2022-08-14T20:06:56.081Z,38.16
2022-08-14T20:11:10.447Z,37.91
2022-08-14T20:12:28.776Z,38.04
2022-08-14T20:15:06.826Z,37.95
2022-08-14T20:17:40.141Z,38.28
2022-08-14T20:20:16.603Z,38.24
2022-08-14T20:22:58.747Z,37.90
2022-08-14T20:25:32.821Z,38.40
2022-08-14T20:28:30.298Z,38.08
2022-08-14T20:31:13.410Z,38.47
2022-08-14T20:33:48.207Z,39.04
2022-08-14T20:36:22.110Z,39.47
2022-08-14T20:38:56.833Z,39.59
2022-08-14T20:41:24.950Z,40.04
2022-08-14T20:44:12.019Z,39.98
2022-08-14T20:46:42.387Z,39.59
2022-08-14T20:49:12.453Z,39.48
2022-08-14T20:51:47.280Z,39.37
2022-08-14T20:54:34.138Z,39.60
2022-08-14T20:57:07.897Z,39.80
2022-08-14T20:59:43.382Z,39.83
2022-08-14T21:02:30.492Z,39.53
2022-08-14T21:05:17.203Z,39.77
2022-08-14T21:07:50.761Z,39.76
2022-08-14T21:10:36.480Z,40.33
2022-08-14T21:13:26.289Z,40.07
2022-08-14T21:15:57.449Z,40.08
2022-08-14T21:18:29.504Z,39.80
2022-08-14T21:20:57.982Z,40.08
2022-08-14T21:23:32.626Z,39.84
2022-08-14T21:26:01.595Z,39.69
2022-08-14T21:28:35.313Z,39.70
2022-08-14T21:31:04.156Z,39.97
2022-08-14T21:33:35.480Z,39.77
2022-08-14T21:36:07.441Z,39.60
2022-08-14T21:38:36.549Z,39.68
2022-08-14T21:41:41.607Z,39.69
2022-08-14T21:44:18.272Z,39.86
2022-08-14T21:46:51.275Z,39.50
2022-08-14T21:49:23.983Z,39.64
2022-08-14T21:51:57.197Z,39.99
2022-08-14T21:54:32.594Z,39.73
2022-08-14T21:57:53.562Z,39.97
2022-08-14T22:00:30.555Z,39.78
2022-08-14T22:03:01.473Z,39.85
2022-08-14T22:05:31.049Z,40.06
2022-08-14T22:07:59.344Z,40.32
2022-08-14T22:10:30.768Z,40.30
2022-08-14T22:13:01.590Z,40.49
2022-08-14T22:15:30.383Z,40.30
2022-08-14T22:17:58.466Z,40.75
2022-08-14T22:20:28.681Z,40.73
2022-08-14T22:22:59.244Z,40.81
2022-08-14T22:25:34.119Z,40.92
2022-08-14T22:28:03.092Z,40.89
2022-08-14T22:30:31.537Z,40.68
2022-08-14T22:33:00.407Z,40.90
2022-08-14T22:35:29.220Z,40.70
2022-08-14T22:38:32.634Z,40.67
2022-08-14T22:41:06.525Z,40.63
2022-08-14T22:43:36.014Z,40.63
2022-08-14T22:46:06.192Z,40.83
2022-08-14T22:48:44.417Z,40.72
2022-08-14T22:51:13.575Z,40.73
2022-08-14T22:53:43.710Z,40.95
2022-08-14T22:56:20.365Z,41.12
2022-08-14T22:58:53.954Z,40.93
2022-08-14T23:01:56.953Z,41.06
2022-08-14T23:04:35.456Z,40.96
2022-08-14T23:07:05.015Z,41.04
2022-08-14T23:09:38.064Z,41.16
2022-08-14T23:12:28.036Z,41.00
2022-08-14T23:14:57.188Z,41.19
2022-08-14T23:17:25.774Z,41.19
2022-08-14T23:19:56.542Z,41.17
2022-08-14T23:22:26.155Z,41.17
2022-08-14T23:24:56.757Z,41.19
2022-08-14T23:27:31.929Z,41.15
2022-08-14T23:30:31.417Z,41.38
2022-08-14T23:33:03.202Z,41.56
2022-08-14T23:35:33.270Z,41.61
2022-08-14T23:38:02.924Z,41.61
2022-08-14T23:40:32.588Z,41.50
2022-08-14T23:43:03.365Z,41.39
2022-08-14T23:45:36.565Z,41.42
2022-08-14T23:48:05.700Z,41.50
2022-08-14T23:50:38.809Z,41.37
2022-08-14T23:53:27.846Z,41.38
2022-08-14T23:55:58.809Z,41.35
2022-08-14T23:58:32.168Z,41.46
